sensor_id;sensor_type;location;lat;lon;timestamp;P1;durP1;ratioP1;P2;durP2;ratioP2
85703;SDS011;76141;49.082;19.306;2024-02-04T00:02:22;7.78;;;5.35;;
85703;SDS011;76141;49.082;19.306;2024-02-04T00:04:50;6.85;;;4.75;;
85703;SDS011;76141;49.082;19.306;2024-02-04T00:07:16;7.07;;;4.75;;
85703;SDS011;76141;49.082;19.306;2024-02-04T00:09:41;6.65;;;4.82;;
85703;SDS011;76141;49.082;19.306;2024-02-04T00:12:09;5.50;;;4.10;;
85703;SDS011;76141;49.082;19.306;2024-02-04T00:14:35;5.50;;;4.05;;
85703;SDS011;76141;49.082;19.306;2024-02-04T00:17:00;5.70;;;3.90;;
85703;SDS011;76141;49.082;19.306;2024-02-04T00:19:26;5.68;;;4.43;;
85703;SDS011;76141;49.082;19.306;2024-02-04T00:21:51;6.15;;;4.93;;
85703;SDS011;76141;49.082;19.306;2024-02-04T00:24:17;7.80;;;4.40;;
85703;SDS011;76141;49.082;19.306;2024-02-04T00:26:44;4.95;;;4.40;;
85703;SDS011;76141;49.082;19.306;2024-02-04T00:29:10;5.70;;;3.95;;
85703;SDS011;76141;49.082;19.306;2024-02-04T00:31:35;5.00;;;3.50;;
85703;SDS011;76141;49.082;19.306;2024-02-04T00:34:01;4.38;;;3.60;;
85703;SDS011;76141;49.082;19.306;2024-02-04T00:36:27;4.90;;;3.55;;
85703;SDS011;76141;49.082;19.306;2024-02-04T00:38:52;4.00;;;3.42;;
85703;SDS011;76141;49.082;19.306;2024-02-04T00:41:18;3.72;;;2.60;;
85703;SDS011;76141;49.082;19.306;2024-02-04T00:43:43;3.45;;;2.70;;
85703;SDS011;76141;49.082;19.306;2024-02-04T00:46:09;3.35;;;2.60;;
85703;SDS011;76141;49.082;19.306;2024-02-04T00:48:37;3.22;;;2.65;;
85703;SDS011;76141;49.082;19.306;2024-02-04T00:51:05;3.00;;;2.70;;
85703;SDS011;76141;49.082;19.306;2024-02-04T00:53:31;2.42;;;1.90;;
85703;SDS011;76141;49.082;19.306;2024-02-04T00:56:05;4.10;;;2.40;;
85703;SDS011;76141;49.082;19.306;2024-02-04T00:58:31;2.55;;;2.10;;
85703;SDS011;76141;49.082;19.306;2024-02-04T01:00:56;4.22;;;2.28;;
85703;SDS011;76141;49.082;19.306;2024-02-04T01:03:22;2.40;;;2.08;;
85703;SDS011;76141;49.082;19.306;2024-02-04T01:05:47;2.22;;;2.03;;
85703;SDS011;76141;49.082;19.306;2024-02-04T01:08:13;2.45;;;2.25;;
85703;SDS011;76141;49.082;19.306;2024-02-04T01:10:39;2.30;;;2.10;;
85703;SDS011;76141;49.082;19.306;2024-02-04T01:13:05;3.10;;;2.08;;
85703;SDS011;76141;49.082;19.306;2024-02-04T01:15:30;2.40;;;2.10;;
85703;SDS011;76141;49.082;19.306;2024-02-04T01:17:56;3.50;;;2.35;;
85703;SDS011;76141;49.082;19.306;2024-02-04T01:20:21;3.42;;;2.20;;
85703;SDS011;76141;49.082;19.306;2024-02-04T01:22:47;2.30;;;2.10;;
85703;SDS011;76141;49.082;19.306;2024-02-04T01:25:13;2.50;;;2.25;;
85703;SDS011;76141;49.082;19.306;2024-02-04T01:27:38;2.80;;;2.17;;
85703;SDS011;76141;49.082;19.306;2024-02-04T01:30:04;3.08;;;2.35;;
85703;SDS011;76141;49.082;19.306;2024-02-04T01:32:30;3.13;;;2.17;;
85703;SDS011;76141;49.082;19.306;2024-02-04T01:34:56;4.10;;;2.55;;
85703;SDS011;76141;49.082;19.306;2024-02-04T01:37:22;3.53;;;2.70;;
85703;SDS011;76141;49.082;19.306;2024-02-04T01:39:48;3.67;;;2.95;;
85703;SDS011;76141;49.082;19.306;2024-02-04T01:42:14;2.33;;;2.13;;
85703;SDS011;76141;49.082;19.306;2024-02-04T01:44:39;3.75;;;1.77;;
85703;SDS011;76141;49.082;19.306;2024-02-04T01:47:05;1.70;;;1.60;;
85703;SDS011;76141;49.082;19.306;2024-02-04T01:49:31;1.70;;;1.55;;
85703;SDS011;76141;49.082;19.306;2024-02-04T01:51:56;1.92;;;1.73;;
85703;SDS011;76141;49.082;19.306;2024-02-04T01:54:22;1.80;;;1.60;;
85703;SDS011;76141;49.082;19.306;2024-02-04T01:56:49;2.28;;;1.50;;
85703;SDS011;76141;49.082;19.306;2024-02-04T01:59:15;1.85;;;1.60;;
85703;SDS011;76141;49.082;19.306;2024-02-04T02:01:41;1.90;;;1.52;;
85703;SDS011;76141;49.082;19.306;2024-02-04T02:04:08;2.58;;;1.80;;
85703;SDS011;76141;49.082;19.306;2024-02-04T02:06:34;3.35;;;1.80;;
85703;SDS011;76141;49.082;19.306;2024-02-04T02:09:06;1.95;;;1.42;;
85703;SDS011;76141;49.082;19.306;2024-02-04T02:11:52;2.00;;;1.30;;
85703;SDS011;76141;49.082;19.306;2024-02-04T02:14:23;1.73;;;1.40;;
85703;SDS011;76141;49.082;19.306;2024-02-04T02:16:52;1.20;;;1.10;;
85703;SDS011;76141;49.082;19.306;2024-02-04T02:19:44;2.65;;;1.25;;
85703;SDS011;76141;49.082;19.306;2024-02-04T02:22:29;1.10;;;1.00;;
85703;SDS011;76141;49.082;19.306;2024-02-04T02:24:56;1.25;;;1.13;;
85703;SDS011;76141;49.082;19.306;2024-02-04T02:27:22;1.08;;;0.98;;
85703;SDS011;76141;49.082;19.306;2024-02-04T02:29:47;1.10;;;1.00;;
85703;SDS011;76141;49.082;19.306;2024-02-04T02:32:13;1.40;;;1.30;;
85703;SDS011;76141;49.082;19.306;2024-02-04T02:34:39;1.40;;;1.25;;
85703;SDS011;76141;49.082;19.306;2024-02-04T02:42:30;1.52;;;1.08;;
85703;SDS011;76141;49.082;19.306;2024-02-04T02:44:56;1.60;;;1.02;;
85703;SDS011;76141;49.082;19.306;2024-02-04T02:47:22;1.10;;;0.90;;
85703;SDS011;76141;49.082;19.306;2024-02-04T02:49:50;1.10;;;1.00;;
85703;SDS011;76141;49.082;19.306;2024-02-04T02:52:25;1.10;;;1.00;;
85703;SDS011;76141;49.082;19.306;2024-02-04T02:54:51;1.65;;;1.20;;
85703;SDS011;76141;49.082;19.306;2024-02-04T02:57:16;1.23;;;1.05;;
85703;SDS011;76141;49.082;19.306;2024-02-04T02:59:42;1.17;;;1.00;;
85703;SDS011;76141;49.082;19.306;2024-02-04T03:02:08;1.15;;;0.95;;
85703;SDS011;76141;49.082;19.306;2024-02-04T03:04:33;1.65;;;1.10;;
85703;SDS011;76141;49.082;19.306;2024-02-04T03:06:59;1.10;;;0.98;;
85703;SDS011;76141;49.082;19.306;2024-02-04T03:09:25;1.10;;;1.00;;
85703;SDS011;76141;49.082;19.306;2024-02-04T03:11:51;1.10;;;0.82;;
85703;SDS011;76141;49.082;19.306;2024-02-04T03:14:16;1.40;;;0.90;;
85703;SDS011;76141;49.082;19.306;2024-02-04T03:16:45;0.68;;;0.68;;
85703;SDS011;76141;49.082;19.306;2024-02-04T03:19:11;1.58;;;0.80;;
85703;SDS011;76141;49.082;19.306;2024-02-04T03:21:37;1.33;;;1.00;;
85703;SDS011;76141;49.082;19.306;2024-02-04T03:24:03;2.05;;;0.73;;
85703;SDS011;76141;49.082;19.306;2024-02-04T03:26:28;1.13;;;0.90;;
85703;SDS011;76141;49.082;19.306;2024-02-04T03:28:54;1.10;;;0.77;;
85703;SDS011;76141;49.082;19.306;2024-02-04T03:31:20;1.23;;;0.80;;
85703;SDS011;76141;49.082;19.306;2024-02-04T03:33:46;0.93;;;0.90;;
85703;SDS011;76141;49.082;19.306;2024-02-04T03:36:14;0.93;;;0.70;;
85703;SDS011;76141;49.082;19.306;2024-02-04T03:38:48;0.85;;;0.70;;
85703;SDS011;76141;49.082;19.306;2024-02-04T03:41:14;1.63;;;1.00;;
85703;SDS011;76141;49.082;19.306;2024-02-04T03:43:39;1.83;;;0.90;;
85703;SDS011;76141;49.082;19.306;2024-02-04T03:46:05;1.92;;;1.00;;
85703;SDS011;76141;49.082;19.306;2024-02-04T03:48:31;0.80;;;0.60;;
85703;SDS011;76141;49.082;19.306;2024-02-04T03:50:56;3.15;;;1.30;;
85703;SDS011;76141;49.082;19.306;2024-02-04T03:53:22;1.98;;;1.20;;
85703;SDS011;76141;49.082;19.306;2024-02-04T03:55:50;1.33;;;1.00;;
85703;SDS011;76141;49.082;19.306;2024-02-04T03:58:16;1.70;;;1.00;;
85703;SDS011;76141;49.082;19.306;2024-02-04T04:00:42;1.05;;;0.88;;
85703;SDS011;76141;49.082;19.306;2024-02-04T04:03:07;0.85;;;0.70;;
85703;SDS011;76141;49.082;19.306;2024-02-04T04:05:33;1.27;;;0.70;;
85703;SDS011;76141;49.082;19.306;2024-02-04T04:07:58;2.10;;;0.80;;
85703;SDS011;76141;49.082;19.306;2024-02-04T04:10:24;0.88;;;0.60;;
85703;SDS011;76141;49.082;19.306;2024-02-04T04:12:50;1.27;;;0.63;;
85703;SDS011;76141;49.082;19.306;2024-02-04T04:15:18;2.35;;;1.15;;
85703;SDS011;76141;49.082;19.306;2024-02-04T04:17:44;2.10;;;0.85;;
85703;SDS011;76141;49.082;19.306;2024-02-04T04:20:10;1.10;;;0.73;;
85703;SDS011;76141;49.082;19.306;2024-02-04T04:22:38;1.35;;;0.90;;
85703;SDS011;76141;49.082;19.306;2024-02-04T04:25:05;3.17;;;1.30;;
85703;SDS011;76141;49.082;19.306;2024-02-04T04:27:31;2.20;;;1.55;;
85703;SDS011;76141;49.082;19.306;2024-02-04T04:29:57;3.47;;;1.80;;
85703;SDS011;76141;49.082;19.306;2024-02-04T04:32:22;3.28;;;2.03;;
85703;SDS011;76141;49.082;19.306;2024-02-04T04:34:48;5.10;;;2.40;;
85703;SDS011;76141;49.082;19.306;2024-02-04T04:37:13;2.55;;;1.17;;
85703;SDS011;76141;49.082;19.306;2024-02-04T04:39:39;4.22;;;2.13;;
85703;SDS011;76141;49.082;19.306;2024-02-04T04:42:04;9.10;;;3.33;;
85703;SDS011;76141;49.082;19.306;2024-02-04T04:44:30;2.50;;;1.70;;
85703;SDS011;76141;49.082;19.306;2024-02-04T04:46:55;6.85;;;3.17;;
85703;SDS011;76141;49.082;19.306;2024-02-04T04:49:21;4.63;;;2.50;;
85703;SDS011;76141;49.082;19.306;2024-02-04T04:51:47;5.75;;;3.30;;
85703;SDS011;76141;49.082;19.306;2024-02-04T04:54:12;4.65;;;2.17;;
85703;SDS011;76141;49.082;19.306;2024-02-04T04:56:38;2.08;;;1.40;;
85703;SDS011;76141;49.082;19.306;2024-02-04T04:59:05;3.83;;;2.20;;
85703;SDS011;76141;49.082;19.306;2024-02-04T05:01:31;3.33;;;2.22;;
85703;SDS011;76141;49.082;19.306;2024-02-04T05:03:57;1.48;;;1.30;;
85703;SDS011;76141;49.082;19.306;2024-02-04T05:06:22;1.33;;;1.20;;
85703;SDS011;76141;49.082;19.306;2024-02-04T05:08:48;0.60;;;0.60;;
85703;SDS011;76141;49.082;19.306;2024-02-04T05:11:13;1.05;;;0.73;;
85703;SDS011;76141;49.082;19.306;2024-02-04T05:13:39;0.60;;;0.60;;
85703;SDS011;76141;49.082;19.306;2024-02-04T05:16:05;0.60;;;0.60;;
85703;SDS011;76141;49.082;19.306;2024-02-04T05:18:30;0.80;;;0.80;;
85703;SDS011;76141;49.082;19.306;2024-02-04T05:20:56;0.98;;;0.70;;
85703;SDS011;76141;49.082;19.306;2024-02-04T05:23:22;2.13;;;0.73;;
85703;SDS011;76141;49.082;19.306;2024-02-04T05:25:47;1.55;;;0.90;;
85703;SDS011;76141;49.082;19.306;2024-02-04T05:28:13;0.80;;;0.80;;
85703;SDS011;76141;49.082;19.306;2024-02-04T05:30:38;1.10;;;0.80;;
85703;SDS011;76141;49.082;19.306;2024-02-04T05:33:04;0.65;;;0.60;;
85703;SDS011;76141;49.082;19.306;2024-02-04T05:35:30;0.70;;;0.70;;
85703;SDS011;76141;49.082;19.306;2024-02-04T05:37:56;0.70;;;0.70;;
85703;SDS011;76141;49.082;19.306;2024-02-04T05:40:21;0.73;;;0.55;;
85703;SDS011;76141;49.082;19.306;2024-02-04T05:42:47;0.90;;;0.80;;
85703;SDS011;76141;49.082;19.306;2024-02-04T05:45:12;0.80;;;0.80;;
85703;SDS011;76141;49.082;19.306;2024-02-04T05:47:38;1.80;;;0.90;;
85703;SDS011;76141;49.082;19.306;2024-02-04T05:50:04;1.60;;;0.80;;
85703;SDS011;76141;49.082;19.306;2024-02-04T05:52:30;0.70;;;0.70;;
85703;SDS011;76141;49.082;19.306;2024-02-04T05:54:56;1.58;;;0.70;;
85703;SDS011;76141;49.082;19.306;2024-02-04T05:57:21;1.80;;;0.80;;
85703;SDS011;76141;49.082;19.306;2024-02-04T05:59:47;2.15;;;0.90;;
85703;SDS011;76141;49.082;19.306;2024-02-04T06:02:17;1.23;;;0.85;;
85703;SDS011;76141;49.082;19.306;2024-02-04T06:04:43;1.60;;;1.02;;
85703;SDS011;76141;49.082;19.306;2024-02-04T06:07:08;1.40;;;0.85;;
85703;SDS011;76141;49.082;19.306;2024-02-04T06:09:34;0.88;;;0.88;;
85703;SDS011;76141;49.082;19.306;2024-02-04T06:12:00;0.70;;;0.70;;
85703;SDS011;76141;49.082;19.306;2024-02-04T06:14:26;2.00;;;0.90;;
85703;SDS011;76141;49.082;19.306;2024-02-04T06:16:51;0.70;;;0.70;;
85703;SDS011;76141;49.082;19.306;2024-02-04T06:19:16;0.75;;;0.75;;
85703;SDS011;76141;49.082;19.306;2024-02-04T06:21:42;1.67;;;0.60;;
85703;SDS011;76141;49.082;19.306;2024-02-04T06:24:07;1.63;;;0.80;;
85703;SDS011;76141;49.082;19.306;2024-02-04T06:26:33;0.85;;;0.70;;
85703;SDS011;76141;49.082;19.306;2024-02-04T06:28:59;1.02;;;0.77;;
85703;SDS011;76141;49.082;19.306;2024-02-04T06:31:24;1.98;;;0.90;;
85703;SDS011;76141;49.082;19.306;2024-02-04T06:33:50;1.00;;;0.90;;
85703;SDS011;76141;49.082;19.306;2024-02-04T06:36:16;1.00;;;0.90;;
85703;SDS011;76141;49.082;19.306;2024-02-04T06:38:42;1.45;;;0.98;;
85703;SDS011;76141;49.082;19.306;2024-02-04T06:41:07;0.70;;;0.70;;
85703;SDS011;76141;49.082;19.306;2024-02-04T06:43:33;0.75;;;0.75;;
85703;SDS011;76141;49.082;19.306;2024-02-04T06:45:59;0.98;;;0.88;;
85703;SDS011;76141;49.082;19.306;2024-02-04T06:48:24;0.95;;;0.90;;
85703;SDS011;76141;49.082;19.306;2024-02-04T06:50:50;2.08;;;1.58;;
85703;SDS011;76141;49.082;19.306;2024-02-04T06:53:16;2.22;;;1.80;;
85703;SDS011;76141;49.082;19.306;2024-02-04T06:55:41;2.47;;;1.60;;
85703;SDS011;76141;49.082;19.306;2024-02-04T06:58:07;1.65;;;1.45;;
85703;SDS011;76141;49.082;19.306;2024-02-04T07:00:32;1.60;;;1.42;;
85703;SDS011;76141;49.082;19.306;2024-02-04T07:02:58;1.17;;;1.10;;
85703;SDS011;76141;49.082;19.306;2024-02-04T07:05:23;2.05;;;1.23;;
85703;SDS011;76141;49.082;19.306;2024-02-04T07:07:50;1.33;;;1.00;;
85703;SDS011;76141;49.082;19.306;2024-02-04T07:10:17;1.25;;;1.13;;
85703;SDS011;76141;49.082;19.306;2024-02-04T07:12:44;1.55;;;1.17;;
85703;SDS011;76141;49.082;19.306;2024-02-04T07:15:10;1.58;;;1.10;;
85703;SDS011;76141;49.082;19.306;2024-02-04T07:17:35;1.20;;;1.10;;
85703;SDS011;76141;49.082;19.306;2024-02-04T07:20:01;1.15;;;1.02;;
85703;SDS011;76141;49.082;19.306;2024-02-04T07:22:27;1.55;;;1.10;;
85703;SDS011;76141;49.082;19.306;2024-02-04T07:24:53;2.53;;;1.20;;
85703;SDS011;76141;49.082;19.306;2024-02-04T07:27:18;2.47;;;1.40;;
85703;SDS011;76141;49.082;19.306;2024-02-04T07:29:44;2.15;;;1.58;;
85703;SDS011;76141;49.082;19.306;2024-02-04T07:32:10;2.80;;;1.63;;
85703;SDS011;76141;49.082;19.306;2024-02-04T07:34:35;1.92;;;1.45;;
85703;SDS011;76141;49.082;19.306;2024-02-04T07:37:01;3.03;;;1.60;;
85703;SDS011;76141;49.082;19.306;2024-02-04T07:39:27;2.20;;;1.60;;
85703;SDS011;76141;49.082;19.306;2024-02-04T07:41:53;5.25;;;1.67;;
85703;SDS011;76141;49.082;19.306;2024-02-04T07:44:19;2.53;;;1.83;;
85703;SDS011;76141;49.082;19.306;2024-02-04T07:46:44;3.65;;;2.55;;
85703;SDS011;76141;49.082;19.306;2024-02-04T07:49:10;4.07;;;3.13;;
85703;SDS011;76141;49.082;19.306;2024-02-04T07:51:35;3.85;;;2.90;;
85703;SDS011;76141;49.082;19.306;2024-02-04T07:54:01;4.47;;;3.40;;
85703;SDS011;76141;49.082;19.306;2024-02-04T07:56:26;3.72;;;2.78;;
85703;SDS011;76141;49.082;19.306;2024-02-04T07:58:52;2.60;;;2.10;;
85703;SDS011;76141;49.082;19.306;2024-02-04T08:01:18;3.72;;;3.00;;
85703;SDS011;76141;49.082;19.306;2024-02-04T08:03:44;5.97;;;3.95;;
85703;SDS011;76141;49.082;19.306;2024-02-04T08:06:11;8.00;;;5.55;;
85703;SDS011;76141;49.082;19.306;2024-02-04T08:08:37;14.00;;;9.27;;
85703;SDS011;76141;49.082;19.306;2024-02-04T08:11:02;18.23;;;11.10;;
85703;SDS011;76141;49.082;19.306;2024-02-04T08:13:28;19.02;;;12.02;;
85703;SDS011;76141;49.082;19.306;2024-02-04T08:15:53;13.13;;;8.38;;
85703;SDS011;76141;49.082;19.306;2024-02-04T08:18:19;10.73;;;7.38;;
85703;SDS011;76141;49.082;19.306;2024-02-04T08:20:44;6.82;;;5.60;;
85703;SDS011;76141;49.082;19.306;2024-02-04T08:23:10;5.82;;;4.97;;
85703;SDS011;76141;49.082;19.306;2024-02-04T08:25:35;5.95;;;4.45;;
85703;SDS011;76141;49.082;19.306;2024-02-04T08:28:01;5.13;;;3.70;;
85703;SDS011;76141;49.082;19.306;2024-02-04T08:30:26;4.95;;;3.80;;
85703;SDS011;76141;49.082;19.306;2024-02-04T08:32:52;5.20;;;3.78;;
85703;SDS011;76141;49.082;19.306;2024-02-04T08:35:17;2.45;;;2.22;;
85703;SDS011;76141;49.082;19.306;2024-02-04T08:37:43;2.58;;;2.10;;
85703;SDS011;76141;49.082;19.306;2024-02-04T08:40:08;5.30;;;1.67;;
85703;SDS011;76141;49.082;19.306;2024-02-04T08:42:35;1.98;;;1.15;;
85703;SDS011;76141;49.082;19.306;2024-02-04T08:45:01;4.28;;;2.67;;
85703;SDS011;76141;49.082;19.306;2024-02-04T08:47:26;4.65;;;2.53;;
85703;SDS011;76141;49.082;19.306;2024-02-04T08:49:51;4.20;;;2.30;;
85703;SDS011;76141;49.082;19.306;2024-02-04T08:52:17;2.45;;;1.58;;
85703;SDS011;76141;49.082;19.306;2024-02-04T08:54:43;4.72;;;2.40;;
85703;SDS011;76141;49.082;19.306;2024-02-04T08:57:08;3.20;;;1.83;;
85703;SDS011;76141;49.082;19.306;2024-02-04T08:59:34;3.83;;;2.20;;
85703;SDS011;76141;49.082;19.306;2024-02-04T09:02:00;1.50;;;0.95;;
85703;SDS011;76141;49.082;19.306;2024-02-04T09:04:25;1.23;;;1.13;;
85703;SDS011;76141;49.082;19.306;2024-02-04T09:06:51;3.17;;;1.90;;
85703;SDS011;76141;49.082;19.306;2024-02-04T09:09:16;1.25;;;0.82;;
85703;SDS011;76141;49.082;19.306;2024-02-04T09:11:41;0.80;;;0.70;;
85703;SDS011;76141;49.082;19.306;2024-02-04T09:14:07;3.88;;;2.30;;
85703;SDS011;76141;49.082;19.306;2024-02-04T09:16:32;1.90;;;1.33;;
85703;SDS011;76141;49.082;19.306;2024-02-04T09:18:58;3.92;;;2.25;;
85703;SDS011;76141;49.082;19.306;2024-02-04T09:21:23;2.00;;;1.30;;
85703;SDS011;76141;49.082;19.306;2024-02-04T09:23:49;5.35;;;2.63;;
85703;SDS011;76141;49.082;19.306;2024-02-04T09:26:14;1.40;;;1.10;;
85703;SDS011;76141;49.082;19.306;2024-02-04T09:28:40;1.38;;;1.00;;
85703;SDS011;76141;49.082;19.306;2024-02-04T09:31:07;1.98;;;1.10;;
85703;SDS011;76141;49.082;19.306;2024-02-04T09:33:34;0.95;;;0.90;;
85703;SDS011;76141;49.082;19.306;2024-02-04T09:36:00;2.33;;;0.82;;
85703;SDS011;76141;49.082;19.306;2024-02-04T09:38:25;1.10;;;0.75;;
85703;SDS011;76141;49.082;19.306;2024-02-04T09:40:51;0.98;;;0.60;;
85703;SDS011;76141;49.082;19.306;2024-02-04T09:43:16;1.60;;;0.70;;
85703;SDS011;76141;49.082;19.306;2024-02-04T09:45:44;1.70;;;0.60;;
85703;SDS011;76141;49.082;19.306;2024-02-04T09:48:09;1.00;;;0.75;;
85703;SDS011;76141;49.082;19.306;2024-02-04T09:50:35;0.75;;;0.70;;
85703;SDS011;76141;49.082;19.306;2024-02-04T09:53:01;0.82;;;0.60;;
85703;SDS011;76141;49.082;19.306;2024-02-04T09:55:28;0.70;;;0.70;;
85703;SDS011;76141;49.082;19.306;2024-02-04T09:57:55;0.45;;;0.40;;
85703;SDS011;76141;49.082;19.306;2024-02-04T10:00:21;1.10;;;0.70;;
85703;SDS011;76141;49.082;19.306;2024-02-04T10:02:47;0.90;;;0.50;;
85703;SDS011;76141;49.082;19.306;2024-02-04T10:05:13;1.10;;;0.80;;
85703;SDS011;76141;49.082;19.306;2024-02-04T10:07:39;2.53;;;2.08;;
85703;SDS011;76141;49.082;19.306;2024-02-04T10:10:05;1.20;;;0.88;;
85703;SDS011;76141;49.082;19.306;2024-02-04T10:12:32;1.42;;;1.25;;
85703;SDS011;76141;49.082;19.306;2024-02-04T10:14:58;1.05;;;0.95;;
85703;SDS011;76141;49.082;19.306;2024-02-04T10:17:24;0.77;;;0.68;;
85703;SDS011;76141;49.082;19.306;2024-02-04T10:19:50;0.70;;;0.60;;
85703;SDS011;76141;49.082;19.306;2024-02-04T10:22:15;0.80;;;0.50;;
85703;SDS011;76141;49.082;19.306;2024-02-04T10:24:42;0.50;;;0.50;;
85703;SDS011;76141;49.082;19.306;2024-02-04T10:27:09;0.80;;;0.50;;
85703;SDS011;76141;49.082;19.306;2024-02-04T10:29:36;0.70;;;0.70;;
85703;SDS011;76141;49.082;19.306;2024-02-04T10:32:02;0.55;;;0.47;;
85703;SDS011;76141;49.082;19.306;2024-02-04T10:34:28;1.25;;;0.45;;
85703;SDS011;76141;49.082;19.306;2024-02-04T10:36:58;0.45;;;0.40;;
85703;SDS011;76141;49.082;19.306;2024-02-04T10:39:23;0.40;;;0.40;;
85703;SDS011;76141;49.082;19.306;2024-02-04T10:41:49;0.73;;;0.70;;
85703;SDS011;76141;49.082;19.306;2024-02-04T10:44:22;0.52;;;0.50;;
85703;SDS011;76141;49.082;19.306;2024-02-04T10:46:49;1.58;;;1.02;;
85703;SDS011;76141;49.082;19.306;2024-02-04T10:49:15;2.00;;;0.98;;
85703;SDS011;76141;49.082;19.306;2024-02-04T10:51:42;0.85;;;0.50;;
85703;SDS011;76141;49.082;19.306;2024-02-04T10:54:08;0.90;;;0.40;;
85703;SDS011;76141;49.082;19.306;2024-02-04T10:56:37;1.90;;;0.40;;
85703;SDS011;76141;49.082;19.306;2024-02-04T10:59:15;0.63;;;0.45;;
85703;SDS011;76141;49.082;19.306;2024-02-04T11:01:45;0.60;;;0.50;;
85703;SDS011;76141;49.082;19.306;2024-02-04T11:04:13;0.50;;;0.30;;
85703;SDS011;76141;49.082;19.306;2024-02-04T11:06:42;0.30;;;0.30;;
85703;SDS011;76141;49.082;19.306;2024-02-04T11:09:09;0.87;;;0.40;;
85703;SDS011;76141;49.082;19.306;2024-02-04T11:11:36;0.45;;;0.43;;
85703;SDS011;76141;49.082;19.306;2024-02-04T11:14:03;0.40;;;0.40;;
85703;SDS011;76141;49.082;19.306;2024-02-04T11:19:03;0.50;;;0.50;;
85703;SDS011;76141;49.082;19.306;2024-02-04T11:22:14;0.52;;;0.40;;
85703;SDS011;76141;49.082;19.306;2024-02-04T11:27:28;0.40;;;0.40;;
85703;SDS011;76141;49.082;19.306;2024-02-04T11:29:54;0.60;;;0.40;;
85703;SDS011;76141;49.082;19.306;2024-02-04T11:32:19;0.45;;;0.40;;
85703;SDS011;76141;49.082;19.306;2024-02-04T11:34:45;0.70;;;0.50;;
85703;SDS011;76141;49.082;19.306;2024-02-04T11:37:15;0.88;;;0.52;;
85703;SDS011;76141;49.082;19.306;2024-02-04T11:39:49;1.05;;;0.70;;
85703;SDS011;76141;49.082;19.306;2024-02-04T11:42:15;1.13;;;0.80;;
85703;SDS011;76141;49.082;19.306;2024-02-04T11:44:41;0.65;;;0.60;;
85703;SDS011;76141;49.082;19.306;2024-02-04T11:47:06;0.55;;;0.47;;
85703;SDS011;76141;49.082;19.306;2024-02-04T11:49:32;0.75;;;0.70;;
85703;SDS011;76141;49.082;19.306;2024-02-04T11:51:58;1.00;;;0.90;;
85703;SDS011;76141;49.082;19.306;2024-02-04T11:54:25;3.00;;;1.00;;
85703;SDS011;76141;49.082;19.306;2024-02-04T11:56:51;1.88;;;1.10;;
85703;SDS011;76141;49.082;19.306;2024-02-04T11:59:18;3.33;;;1.25;;
85703;SDS011;76141;49.082;19.306;2024-02-04T12:01:46;1.38;;;1.00;;
85703;SDS011;76141;49.082;19.306;2024-02-04T12:04:12;1.92;;;1.52;;
85703;SDS011;76141;49.082;19.306;2024-02-04T12:06:41;3.20;;;1.98;;
85703;SDS011;76141;49.082;19.306;2024-02-04T12:09:10;2.03;;;1.40;;
85703;SDS011;76141;49.082;19.306;2024-02-04T12:11:36;3.20;;;1.50;;
85703;SDS011;76141;49.082;19.306;2024-02-04T12:14:03;1.25;;;1.15;;
85703;SDS011;76141;49.082;19.306;2024-02-04T12:16:30;1.95;;;1.50;;
85703;SDS011;76141;49.082;19.306;2024-02-04T12:18:57;2.08;;;1.40;;
85703;SDS011;76141;49.082;19.306;2024-02-04T12:21:23;3.35;;;1.23;;
85703;SDS011;76141;49.082;19.306;2024-02-04T12:23:49;1.40;;;1.10;;
85703;SDS011;76141;49.082;19.306;2024-02-04T12:26:16;1.58;;;1.20;;
85703;SDS011;76141;49.082;19.306;2024-02-04T12:28:41;2.30;;;1.30;;
85703;SDS011;76141;49.082;19.306;2024-02-04T12:31:07;1.58;;;1.20;;
85703;SDS011;76141;49.082;19.306;2024-02-04T12:33:35;1.50;;;1.20;;
85703;SDS011;76141;49.082;19.306;2024-02-04T12:36:02;2.40;;;1.20;;
85703;SDS011;76141;49.082;19.306;2024-02-04T12:38:28;1.27;;;1.17;;
85703;SDS011;76141;49.082;19.306;2024-02-04T12:41:00;2.03;;;1.20;;
85703;SDS011;76141;49.082;19.306;2024-02-04T12:43:27;1.55;;;1.10;;
85703;SDS011;76141;49.082;19.306;2024-02-04T12:45:55;1.30;;;1.00;;
85703;SDS011;76141;49.082;19.306;2024-02-04T12:48:21;3.03;;;1.30;;
85703;SDS011;76141;49.082;19.306;2024-02-04T12:50:48;1.63;;;1.00;;
85703;SDS011;76141;49.082;19.306;2024-02-04T12:53:13;1.83;;;1.25;;
85703;SDS011;76141;49.082;19.306;2024-02-04T12:55:40;2.00;;;1.10;;
85703;SDS011;76141;49.082;19.306;2024-02-04T12:58:11;1.73;;;1.20;;
85703;SDS011;76141;49.082;19.306;2024-02-04T13:00:39;1.48;;;0.98;;
85703;SDS011;76141;49.082;19.306;2024-02-04T13:03:06;1.48;;;1.10;;
85703;SDS011;76141;49.082;19.306;2024-02-04T13:05:36;1.50;;;1.00;;
85703;SDS011;76141;49.082;19.306;2024-02-04T13:08:03;1.48;;;1.20;;
85703;SDS011;76141;49.082;19.306;2024-02-04T13:10:34;1.33;;;1.10;;
85703;SDS011;76141;49.082;19.306;2024-02-04T13:15:42;3.30;;;3.00;;
85703;SDS011;76141;49.082;19.306;2024-02-04T13:18:08;3.28;;;2.40;;
85703;SDS011;76141;49.082;19.306;2024-02-04T13:20:36;3.97;;;2.63;;
85703;SDS011;76141;49.082;19.306;2024-02-04T13:23:03;3.38;;;2.05;;
85703;SDS011;76141;49.082;19.306;2024-02-04T13:25:30;1.80;;;1.60;;
85703;SDS011;76141;49.082;19.306;2024-02-04T13:27:56;1.48;;;1.10;;
85703;SDS011;76141;49.082;19.306;2024-02-04T13:30:21;1.40;;;1.30;;
85703;SDS011;76141;49.082;19.306;2024-02-04T13:32:47;1.40;;;1.20;;
85703;SDS011;76141;49.082;19.306;2024-02-04T13:35:13;2.15;;;1.50;;
85703;SDS011;76141;49.082;19.306;2024-02-04T13:37:41;1.90;;;1.60;;
85703;SDS011;76141;49.082;19.306;2024-02-04T13:40:11;1.40;;;1.30;;
85703;SDS011;76141;49.082;19.306;2024-02-04T13:42:39;1.20;;;1.05;;
85703;SDS011;76141;49.082;19.306;2024-02-04T13:45:04;1.05;;;0.88;;
85703;SDS011;76141;49.082;19.306;2024-02-04T13:47:30;1.40;;;0.80;;
85703;SDS011;76141;49.082;19.306;2024-02-04T13:49:56;1.00;;;0.85;;
85703;SDS011;76141;49.082;19.306;2024-02-04T13:52:21;2.65;;;1.30;;
85703;SDS011;76141;49.082;19.306;2024-02-04T13:54:48;1.70;;;1.40;;
85703;SDS011;76141;49.082;19.306;2024-02-04T13:57:14;2.58;;;1.50;;
85703;SDS011;76141;49.082;19.306;2024-02-04T13:59:40;1.75;;;1.20;;
85703;SDS011;76141;49.082;19.306;2024-02-04T14:02:05;1.10;;;1.00;;
85703;SDS011;76141;49.082;19.306;2024-02-04T14:04:33;1.40;;;1.05;;
85703;SDS011;76141;49.082;19.306;2024-02-04T14:06:58;1.20;;;1.10;;
85703;SDS011;76141;49.082;19.306;2024-02-04T14:09:24;1.30;;;0.90;;
85703;SDS011;76141;49.082;19.306;2024-02-04T14:11:49;1.75;;;1.30;;
85703;SDS011;76141;49.082;19.306;2024-02-04T14:14:15;1.33;;;1.10;;
85703;SDS011;76141;49.082;19.306;2024-02-04T14:16:41;1.98;;;1.30;;
85703;SDS011;76141;49.082;19.306;2024-02-04T14:19:06;0.98;;;0.85;;
85703;SDS011;76141;49.082;19.306;2024-02-04T14:21:32;2.10;;;0.75;;
85703;SDS011;76141;49.082;19.306;2024-02-04T14:23:57;0.88;;;0.80;;
85703;SDS011;76141;49.082;19.306;2024-02-04T14:26:23;1.40;;;0.90;;
85703;SDS011;76141;49.082;19.306;2024-02-04T14:28:48;1.15;;;1.05;;
85703;SDS011;76141;49.082;19.306;2024-02-04T14:31:14;1.13;;;1.02;;
85703;SDS011;76141;49.082;19.306;2024-02-04T14:33:40;2.25;;;0.90;;
85703;SDS011;76141;49.082;19.306;2024-02-04T14:36:06;0.80;;;0.80;;
85703;SDS011;76141;49.082;19.306;2024-02-04T14:38:32;1.23;;;0.80;;
85703;SDS011;76141;49.082;19.306;2024-02-04T14:40:58;0.93;;;0.77;;
85703;SDS011;76141;49.082;19.306;2024-02-04T14:43:24;1.20;;;0.60;;